Flight Track Log - Related Links

Times and Time Zones

All times are in EDT time to prevent confusion due to time zone crossing. See the UAL1177 flight status page for this flight to view local times or setup timezone preferences in your user account.

Time Position Orientation Groundspeed Altitude Reporting Facility
EDT Latitude Longitude Course Direction KTS MPH feet Rate Location/Type
Sat 10:10:02 AM 26.0790 -80.1040 48° Northeast 201 231 1,200  Level FlightAware ADS-B
Sat 10:12:00 AM 26.1437 -79.8121 48° Northeast  Level FlightAware Approximate
Sat 10:12:32 AM 26.1360 -79.9210 71° East 272 313 6,800  Level FlightAware ADS-B
Sat 10:13:37 AM 26.1770 -79.8350 62° Northeast 287 330 9,800 2,089 Climbing FlightAware ADS-B
Sat 10:14:47 AM 26.2250 -79.7370 61° Northeast 347 399 11,500 1,822 Climbing FlightAware ADS-B
Sat 10:15:52 AM 26.2870 -79.6250 58° Northeast 373 429 13,900 2,222 Climbing FlightAware ADS-B
Sat 10:17:02 AM 26.3940 -79.5580 29° Northeast 385 443 16,500 2,127 Climbing FlightAware ADS-B
Sat 10:17:42 AM 26.4580 -79.5200 28° Northeast 395 455 17,800 2,025 Climbing FlightAware ADS-B
Sat 10:18:22 AM 26.5230 -79.4820 28° Northeast 402 463 19,200 1,976 Climbing FlightAware ADS-B
Sat 10:19:07 AM 26.5950 -79.4390 28° Northeast 410 472 20,600 1,694 Climbing FlightAware ADS-B
Sat 10:19:47 AM 26.6630 -79.3990 28° Northeast 422 486 21,600 1,694 Climbing FlightAware ADS-B
Sat 10:20:32 AM 26.7440 -79.3500 28° Northeast 426 490 23,000 1,835 Climbing FlightAware ADS-B
Sat 10:21:12 AM 26.8140 -79.3080 28° Northeast 426 490 24,200 1,575 Climbing FlightAware ADS-B
Sat 10:21:52 AM 26.8840 -79.2670 28° Northeast 435 501 25,100 1,425 Climbing FlightAware ADS-B
Sat 10:22:32 AM 26.9570 -79.2230 28° Northeast 442 509 26,100 1,412 Climbing FlightAware ADS-B
Sat 10:23:17 AM 27.0370 -79.1750 28° Northeast 446 513 27,100 1,341 Climbing FlightAware ADS-B
Sat 10:23:57 AM 27.1110 -79.1300 28° Northeast 451 519 28,000 1,125 Climbing FlightAware ADS-B
Sat 10:24:37 AM 27.1770 -79.0940 26° Northeast 445 512 28,600 1,000 Climbing FlightAware ADS-B
Sat 10:24:57 AM 27.2240 -79.0810 14° North 439 505 29,000 900 Climbing FlightAware ADS-B
Sat 10:25:37 AM 27.2990 -79.0690 North 455 524 29,500 988 Climbing FlightAware ADS-B
Sat 10:26:22 AM 27.3990 -79.0520 North 458 527 30,400 1,129 Climbing FlightAware ADS-B
Sat 10:27:02 AM 27.4850 -79.0380 North 458 527 31,100 975 Climbing FlightAware ADS-B
Sat 10:27:42 AM 27.5580 -79.0260 North 451 519 31,700 758 Climbing FlightAware ADS-B
Sat 10:28:37 AM 27.6790 -79.0070 North 452 520 32,300 379 Climbing FlightAware ADS-B
Sat 10:29:17 AM 27.7500 -78.9960 North 452 520 32,300  Level FlightAware ADS-B
Sat 10:30:07 AM 27.8380 -78.9820 North 452 520 32,300 2,025 Level FlightAware ADS-B
Sat 10:30:37 AM 27.9300 -78.9670 North 436 502 35,000 2,025 Climbing FlightAware ADS-B
Sat 10:31:27 AM 28.0350 -78.9500 North 438 504 35,000  Level FlightAware ADS-B
Sat 10:32:12 AM 28.1250 -78.9360 North 438 504 35,000  Level FlightAware ADS-B
Sat 10:32:47 AM 28.1970 -78.9240 North 437 503 35,000  Level FlightAware ADS-B
Sat 10:33:27 AM 28.2820 -78.9110 North 435 501 35,000  Level FlightAware ADS-B
Sat 10:34:12 AM 28.3600 -78.8990 North 435 501 35,000  Level FlightAware ADS-B
Sat 10:34:52 AM 28.4270 -78.8880 North 435 501 35,000  Level FlightAware ADS-B
Sat 10:35:42 AM 28.5120 -78.8740 North 435 501 35,000  Level FlightAware ADS-B
Sat 10:36:22 AM 28.5800 -78.8630 North 435 501 35,000  Level FlightAware ADS-B
Sat 10:37:02 AM 28.7150 -78.8410 North 441 507 35,000  Level FlightAware ADS-B
Sat 10:37:42 AM 28.7840 -78.8300 North 441 507 35,000 -76 Level FlightAware ADS-B
Sat 10:38:21 AM 28.8800 -78.8192 North 444 511 34,900  Descending Miami Center
Sat 10:39:21 AM 28.9972 -78.7975 North 444 511 35,000 50 Climbing Miami Center
Sat 10:40:21 AM 29.1206 -78.7758 North 446 513 35,000  Level Miami Center
Sat 10:41:21 AM 29.2439 -78.7567 North 451 519 35,000  Level Miami Center
Sat 10:42:21 AM 29.3611 -78.7300 11° North 438 504 35,000  Level Miami Center
Sat 10:43:21 AM 29.4947 -78.7203 North 449 517 35,000  Level Miami Center
Sat 10:44:21 AM 29.6158 -78.6986 North 442 509 35,000  Level Miami Center
Sat 10:46:51 AM 29.9119 -78.6492 North 442 509 35,000  Level Jacksonville Center
Sat 10:47:51 AM 30.0325 -78.6294 North 442 509 35,000  Level Jacksonville Center
Sat 10:48:51 AM 30.1506 -78.6050 10° North 442 509 35,000  Level Jacksonville Center
Sat 10:49:51 AM 30.2814 -78.5847 North 436 502 35,000  Level Jacksonville Center
Sat 10:50:51 AM 30.4039 -78.5650 North 436 502 35,000  Level Jacksonville Center
Sat 10:51:51 AM 30.5242 -78.5450 North 436 502 35,000  Level Jacksonville Center
Sat 10:52:51 AM 30.6364 -78.5253 North 430 495 35,000  Level Jacksonville Center
Sat 10:53:51 AM 30.7589 -78.5053 North 425 489 35,000  Level Jacksonville Center
Sat 10:54:51 AM 30.8769 -78.4853 North 430 495 35,000  Level Jacksonville Center
Sat 10:55:51 AM 30.9975 -78.4650 North 420 483 35,000  Level Jacksonville Center
Sat 10:56:51 AM 31.1136 -78.4475 North 425 489 35,000  Level Jacksonville Center
Sat 10:57:51 AM 31.2278 -78.4225 11° North 443 510 35,000  Level Jacksonville Center
Sat 10:58:51 AM 31.3439 -78.4050 North 437 503 35,000  Level Jacksonville Center
Sat 10:59:51 AM 31.4642 -78.3844 North 432 497 35,000  Level Jacksonville Center
Sat 11:05:12 AM 32.1130 -78.2730 North 435 501 35,000  Level FlightAware ADS-B
Sat 11:05:52 AM 32.1940 -78.2590 North 435 501 35,000  Level FlightAware ADS-B
Sat 11:06:42 AM 32.2890 -78.2420 North 434 499 35,000  Level FlightAware ADS-B
Sat 11:07:22 AM 32.3770 -78.2270 North 434 499 35,000  Level FlightAware ADS-B
Sat 11:07:57 AM 32.4280 -78.2180 North 434 499 35,000  Level FlightAware ADS-B
Sat 11:08:47 AM 32.5430 -78.1980 North 433 498 35,000  Level FlightAware ADS-B
Sat 11:09:27 AM 32.6200 -78.1840 North 432 497 35,000  Level FlightAware ADS-B
Sat 11:10:12 AM 32.6900 -78.1720 North 431 496 35,000  Level FlightAware ADS-B
Sat 11:10:47 AM 32.7580 -78.1600 North 431 496 35,000  Level FlightAware ADS-B
Sat 11:11:32 AM 32.8600 -78.1420 North 430 495 35,000  Level FlightAware ADS-B
Sat 11:12:17 AM 32.9520 -78.1260 North 430 495 35,000  Level FlightAware ADS-B
Sat 11:12:52 AM 33.0130 -78.1160 North 430 495 35,000  Level FlightAware ADS-B
Sat 11:13:27 AM 32.9520 -78.1260 188° South 35,000  Level FlightAware ADS-B
Sat 11:13:52 AM 33.1430 -78.0920 North 429 494 35,000  Level FlightAware ADS-B
Sat 11:14:37 AM 33.2310 -78.0760 North 430 495 35,000  Level FlightAware ADS-B
Sat 11:15:12 AM 33.2950 -78.0660 North 430 495 35,000  Level FlightAware ADS-B
Sat 11:16:17 AM 33.4180 -78.0440 North 431 496 35,000  Level FlightAware ADS-B
Sat 11:16:57 AM 33.5040 -78.0280 North 432 497 35,000  Level FlightAware ADS-B
Sat 11:18:07 AM 33.6490 -78.0020 North 434 499 35,000  Level FlightAware ADS-B
Sat 11:18:47 AM 33.7290 -77.9870 North 435 501 35,000  Level FlightAware ADS-B
Sat 11:19:27 AM 33.8080 -77.9730 North 435 501 35,000  Level FlightAware ADS-B
Sat 11:20:12 AM 33.8970 -77.9570 North 435 501 35,000  Level FlightAware ADS-B
Sat 11:20:52 AM 33.9800 -77.9420 North 435 501 35,000  Level FlightAware ADS-B
Sat 11:21:37 AM 34.0640 -77.9270 North 435 501 35,000  Level FlightAware ADS-B
Sat 11:22:12 AM 34.1250 -77.9160 North 435 501 35,000  Level FlightAware ADS-B
Sat 11:22:52 AM 34.1930 -77.9050 North 435 501 35,000  Level FlightAware ADS-B
Sat 11:23:42 AM 34.2780 -77.8900 North 435 501 35,000  Level FlightAware ADS-B
Sat 11:24:22 AM 34.3450 -77.8790 North 435 501 35,000  Level FlightAware ADS-B
Sat 11:25:02 AM 34.4130 -77.8670 North 435 501 35,000  Level FlightAware ADS-B
Sat 11:25:42 AM 34.4810 -77.8560 North 435 501 35,000  Level FlightAware ADS-B
Sat 11:26:22 AM 34.5490 -77.8440 North 435 501 35,000  Level FlightAware ADS-B
Sat 11:27:12 AM 34.6330 -77.8300 North 435 501 35,000  Level FlightAware ADS-B
Sat 11:27:52 AM 34.7010 -77.8180 North 435 501 35,000  Level FlightAware ADS-B
Sat 11:28:32 AM 34.7690 -77.8070 North 435 501 35,000  Level FlightAware ADS-B
Sat 11:29:12 AM 34.8370 -77.7950 North 435 501 35,000  Level FlightAware ADS-B
Sat 11:30:02 AM 34.9210 -77.7810 North 435 501 35,000  Level FlightAware ADS-B
Sat 11:30:42 AM 34.9890 -77.7690 North 435 501 35,000  Level FlightAware ADS-B
Sat 11:31:22 AM 35.0570 -77.7570 North 435 501 35,000  Level FlightAware ADS-B
Sat 11:32:47 AM 35.4160 -77.8590 347° North 438 504 35,000  Level FlightAware ADS-B
Sat 11:33:42 AM 35.5200 -77.8790 351° North 437 503 35,000  Level FlightAware ADS-B
Sat 11:34:27 AM 35.6200 -77.8560 11° North 435 501 35,000  Level FlightAware ADS-B
Sat 11:34:52 AM 35.6740 -77.8560 360° North 435 501 35,000  Level FlightAware ADS-B
Sat 11:35:37 AM 35.7630 -77.8540 North 434 499 35,000  Level FlightAware ADS-B
Sat 11:36:17 AM 35.8430 -77.8530 North 433 498 35,000  Level FlightAware ADS-B
Sat 11:37:02 AM 35.9350 -77.8520 North 432 497 35,000  Level FlightAware ADS-B
Sat 11:37:42 AM 36.0160 -77.8510 North 432 497 35,000  Level FlightAware ADS-B
Sat 11:38:22 AM 36.0950 -77.8500 North 432 497 35,000  Level FlightAware ADS-B
Sat 11:39:07 AM 36.1830 -77.8480 North 433 498 35,000  Level FlightAware ADS-B
Sat 11:39:47 AM 36.2640 -77.8470 North 435 501 35,000  Level FlightAware ADS-B
Sat 11:40:32 AM 36.3550 -77.8460 North 436 502 35,000  Level FlightAware ADS-B
Sat 11:41:12 AM 36.4350 -77.8440 North 427 491 35,000  Level FlightAware ADS-B
Sat 11:41:57 AM 36.5230 -77.8430 North 427 491 35,000  Level FlightAware ADS-B
Sat 11:42:37 AM 36.6020 -77.8420 North 427 491 35,000  Level FlightAware ADS-B
Sat 11:43:32 AM 36.7090 -77.8550 354° North 415 478 35,000  Level FlightAware ADS-B
Sat 11:44:17 AM 36.7860 -77.9010 334° Northwest 411 473 35,000  Level FlightAware ADS-B
Sat 11:44:57 AM 36.8540 -77.9430 334° Northwest 410 472 35,000  Level FlightAware ADS-B
Sat 11:45:32 AM 36.9100 -77.9780 333° Northwest 409 471 35,000  Level FlightAware ADS-B
Sat 11:46:17 AM 36.9870 -78.0260 334° Northwest 407 468 35,000  Level FlightAware ADS-B
Sat 11:47:02 AM 37.0610 -78.0720 334° Northwest 406 467 35,000  Level FlightAware ADS-B
Sat 11:47:47 AM 37.1390 -78.1210 333° Northwest 398 458 35,000  Level FlightAware ADS-B
Sat 11:48:22 AM 37.1760 -78.1430 335° Northwest 414 476 35,000  Level FlightAware ADS-B
Sat 11:48:42 AM 37.2410 -78.1490 356° North 424 488 35,000  Level FlightAware ADS-B
Sat 11:48:57 AM 37.2660 -78.1370 21° North 432 497 35,000  Level FlightAware ADS-B
Sat 11:49:37 AM 37.3330 -78.0750 36° Northeast 452 520 35,000  Level FlightAware ADS-B
Sat 11:50:22 AM 37.4100 -78.0010 37° Northeast 451 519 35,000  Level FlightAware ADS-B
Sat 11:51:02 AM 37.4760 -77.9380 37° Northeast 452 520 35,000  Level FlightAware ADS-B
Sat 11:51:47 AM 37.5510 -77.8660 37° Northeast 453 521 35,000  Level FlightAware ADS-B
Sat 11:52:27 AM 37.6170 -77.8030 37° Northeast 454 522 35,000  Level FlightAware ADS-B
Sat 11:53:07 AM 37.6830 -77.7400 37° Northeast 455 524 35,000  Level FlightAware ADS-B
Sat 11:53:52 AM 37.7620 -77.6660 37° Northeast 455 524 35,000  Level FlightAware ADS-B
Sat 11:54:32 AM 37.8290 -77.6010 37° Northeast 450 518 35,000  Level FlightAware ADS-B
Sat 11:55:17 AM 37.9000 -77.5320 37° Northeast 448 516 35,000  Level FlightAware ADS-B
Sat 11:55:57 AM 37.9670 -77.4680 37° Northeast 448 516 35,000  Level FlightAware ADS-B
Sat 11:56:37 AM 38.0310 -77.4050 38° Northeast 447 514 35,000  Level FlightAware ADS-B
Sat 11:56:49 AM 38.0555 -77.3819 37° Northeast 447 514 35,000  Level FlightAware ADS-B
Sat 11:57:19 AM 38.1059 -77.3331 37° Northeast 448 516 35,000  Level FlightAware ADS-B
Sat 11:57:52 AM 38.1587 -77.2819 37° Northeast 448 516 35,000  Level FlightAware ADS-B
Sat 11:58:23 AM 38.2107 -77.2312 37° Northeast 448 516 35,000  Level FlightAware ADS-B
Sat 11:58:55 AM 38.2628 -77.1804 37° Northeast 449 517 35,000  Level FlightAware ADS-B
Sat 11:59:27 AM 38.3110 -77.1330 38° Northeast 449 517 35,000  Level FlightAware ADS-B
Sat 11:59:40 AM 38.3376 -77.1074 37° Northeast 449 517 35,000  Level FlightAware ADS-B
Sat 12:00:11 PM 38.3887 -77.0575 37° Northeast 450 518 35,000  Level FlightAware ADS-B
Sat 12:00:44 PM 38.4427 -77.0047 37° Northeast 448 516 35,000  Level FlightAware ADS-B
Sat 12:01:15 PM 38.4934 -76.9548 38° Northeast 448 516 35,000  Level FlightAware ADS-B
Sat 12:01:47 PM 38.5449 -76.9039 38° Northeast 448 516 35,000  Level FlightAware ADS-B
Sat 12:02:18 PM 38.5957 -76.8538 38° Northeast 447 514 35,000  Level FlightAware ADS-B
Sat 12:02:49 PM 38.6470 -76.8030 38° Northeast 448 516 35,000  Level FlightAware ADS-B
Sat 12:03:20 PM 38.6976 -76.7531 38° Northeast 448 516 35,000  Level FlightAware ADS-B
Sat 12:03:50 PM 38.7449 -76.7000 41° Northeast 450 518 35,000  Level FlightAware ADS-B
Sat 12:04:21 PM 38.7924 -76.6454 42° Northeast 450 518 35,000  Level FlightAware ADS-B
Sat 12:04:51 PM 38.8388 -76.5919 42° Northeast 450 518 35,000  Level FlightAware ADS-B
Sat 12:05:24 PM 38.8904 -76.5324 42° Northeast 452 520 35,000  Level FlightAware ADS-B
Sat 12:05:54 PM 38.9369 -76.4784 42° Northeast 452 520 35,000 -295 Level FlightAware ADS-B
Sat 12:06:25 PM 38.9837 -76.4240 42° Northeast 452 520 34,700 -885 Descending FlightAware ADS-B
Sat 12:06:55 PM 39.0306 -76.3693 42° Northeast 452 520 34,100 -1,967 Descending FlightAware ADS-B
Sat 12:07:26 PM 39.0788 -76.3135 42° Northeast 455 524 32,700 -2,857 Descending FlightAware ADS-B
Sat 12:07:58 PM 39.1288 -76.2553 42° Northeast 459 528 31,100 -3,143 Descending FlightAware ADS-B
Sat 12:08:29 PM 39.1780 -76.1979 42° Northeast 465 535 29,400 -3,148 Descending FlightAware ADS-B
Sat 12:08:59 PM 39.2270 -76.1405 42° Northeast 467 537 27,900 -2,323 Descending FlightAware ADS-B
Sat 12:09:31 PM 39.2779 -76.0808 42° Northeast 465 535 27,000 -857 Descending FlightAware ADS-B
Sat 12:10:02 PM 39.3259 -76.0244 42° Northeast 465 535 27,000  Level FlightAware ADS-B
Sat 12:10:32 PM 39.3738 -75.9680 42° Northeast 465 535 27,000  Level FlightAware ADS-B
Sat 12:11:03 PM 39.4233 -75.9096 42° Northeast 465 535 27,000  Level FlightAware ADS-B
Sat 12:11:35 PM 39.4735 -75.8501 42° Northeast 466 536 27,000 -190 Level FlightAware ADS-B
Sat 12:12:06 PM 39.5228 -75.7917 42° Northeast 464 534 26,800 -1,355 Descending FlightAware ADS-B
Sat 12:12:37 PM 39.5721 -75.7332 42° Northeast 457 526 25,600 -2,361 Descending FlightAware ADS-B
Sat 12:13:07 PM 39.6184 -75.6779 43° Northeast 450 518 24,400 -2,300 Descending FlightAware ADS-B
Sat 12:13:37 PM 39.6642 -75.6233 43° Northeast 442 509 23,300 -2,262 Descending FlightAware ADS-B
Sat 12:14:08 PM 39.7098 -75.5689 43° Northeast 435 501 22,100 -2,323 Descending FlightAware ADS-B
Sat 12:14:39 PM 39.7552 -75.5144 43° Northeast 429 494 20,900 -2,308 Descending FlightAware ADS-B
Sat 12:15:13 PM 39.8040 -75.4556 43° Northeast 422 486 19,600 -2,250 Descending FlightAware ADS-B
Sat 12:15:43 PM 39.8469 -75.4039 43° Northeast 415 478 18,500 -2,300 Descending FlightAware ADS-B
Sat 12:16:13 PM 39.8887 -75.3532 43° Northeast 409 471 17,300 -2,400 Descending FlightAware ADS-B
Sat 12:16:43 PM 39.9300 -75.3030 43° Northeast 406 467 16,100 -2,361 Descending FlightAware ADS-B
Sat 12:17:14 PM 39.9713 -75.2525 43° Northeast 402 463 14,900 -2,164 Descending FlightAware ADS-B
Sat 12:17:44 PM 40.0122 -75.2029 43° Northeast 391 450 13,900 -2,361 Descending FlightAware ADS-B
Sat 12:18:15 PM 40.0515 -75.1548 43° Northeast 376 433 12,500 -2,226 Descending FlightAware ADS-B
Sat 12:18:46 PM 40.0899 -75.1081 43° Northeast 362 417 11,600 -1,839 Descending FlightAware ADS-B
Sat 12:19:17 PM 40.1280 -75.0615 43° Northeast 355 409 10,600 -1,452 Descending FlightAware ADS-B
Sat 12:19:48 PM 40.1635 -75.0179 43° Northeast 333 383 10,100 -1,043 Descending FlightAware ADS-B
Sat 12:20:03 PM 40.1803 -74.9972 43° Northeast 322 371 9,800 -968 Descending FlightAware ADS-B
Sat 12:20:19 PM 40.1966 -74.9771 43° Northeast 312 359 9,600 -938 Descending FlightAware ADS-B
Sat 12:20:35 PM 40.2130 -74.9570 43° Northeast 303 349 9,300 -1,091 Descending FlightAware ADS-B
Sat 12:20:52 PM 40.2302 -74.9360 43° Northeast 298 343 9,000 -1,091 Descending FlightAware ADS-B
Sat 12:21:08 PM 40.2467 -74.9156 43° Northeast 293 337 8,700 -1,154 Descending FlightAware ADS-B
Sat 12:21:18 PM 40.2557 -74.9043 44° Northeast 291 335 8,500 -1,680 Descending FlightAware ADS-B
Sat 12:21:33 PM 40.2696 -74.8849 47° Northeast 289 333 8,000 -1,600 Descending FlightAware ADS-B
Sat 12:21:48 PM 40.2833 -74.8656 47° Northeast 288 331 7,700 -600 Descending FlightAware ADS-B
Sat 12:22:03 PM 40.2970 -74.8464 47° Northeast 288 331 7,700 -200 Level FlightAware ADS-B
Sat 12:22:18 PM 40.3108 -74.8271 47° Northeast 289 333 7,600 -400 Descending FlightAware ADS-B
Sat 12:22:33 PM 40.3248 -74.8075 47° Northeast 289 333 7,500 -800 Descending FlightAware ADS-B
Sat 12:22:48 PM 40.3386 -74.7882 47° Northeast 291 335 7,200 -1,161 Descending FlightAware ADS-B
Sat 12:23:04 PM 40.3528 -74.7681 47° Northeast 292 336 6,900 -968 Descending FlightAware ADS-B
Sat 12:23:19 PM 40.3670 -74.7482 47° Northeast 294 338 6,700 -938 Descending FlightAware ADS-B
Sat 12:23:36 PM 40.3823 -74.7268 47° Northeast 292 336 6,400 -938 Descending FlightAware ADS-B
Sat 12:23:51 PM 40.3965 -74.7065 47° Northeast 289 333 6,200 -938 Descending FlightAware ADS-B
Sat 12:24:08 PM 40.4112 -74.6859 47° Northeast 286 329 5,900 -1,091 Descending FlightAware ADS-B
Sat 12:24:13 PM 40.4163 -74.6800 41° Northeast 284 327 5,800 -750 Descending FlightAware ADS-B
Sat 12:24:16 PM 40.4198 -74.6767 36° Northeast 283 326 5,800 -750 Level FlightAware ADS-B
Sat 12:24:21 PM 40.4252 -74.6724 31° Northeast 282 325 5,700 -1,200 Descending FlightAware ADS-B
Sat 12:24:26 PM 40.4315 -74.6685 25° Northeast 279 321 5,600 -500 Descending FlightAware ADS-B
Sat 12:24:33 PM 40.4399 -74.6650 18° North 277 319 5,600  Level FlightAware ADS-B
Sat 12:24:39 PM 40.4469 -74.6630 12° North 277 319 5,600  Level FlightAware ADS-B
Sat 12:24:54 PM 40.4656 -74.6582 11° North 275 316 5,600 194 Level FlightAware ADS-B
Sat 12:25:10 PM 40.4862 -74.6526 12° North 274 315 5,700 194 Climbing FlightAware ADS-B
Sat 12:25:25 PM 40.5052 -74.6475 12° North 274 315 5,700  Level FlightAware ADS-B
Sat 12:25:46 PM 40.5302 -74.6407 12° North 273 314 5,700  Level FlightAware ADS-B
Sat 12:26:01 PM 40.5491 -74.6357 11° North 275 316 5,700  Level FlightAware ADS-B
Sat 12:26:23 PM 40.5773 -74.6282 11° North 275 316 5,700  Level FlightAware ADS-B
Sat 12:26:42 PM 40.6005 -74.6220 11° North 277 319 5,700 -171 Level FlightAware ADS-B
Sat 12:26:58 PM 40.6209 -74.6165 12° North 276 318 5,600 -194 Descending FlightAware ADS-B
Sat 12:27:13 PM 40.6397 -74.6116 11° North 275 316 5,600 240 Level FlightAware ADS-B
Sat 12:27:23 PM 40.6517 -74.6069 17° North 276 318 5,700  Climbing FlightAware ADS-B
Sat 12:27:29 PM 40.6587 -74.6024 26° Northeast 278 320 5,600  Descending FlightAware ADS-B
Sat 12:27:44 PM 40.6761 -74.5898 29° Northeast 279 321 5,700  Climbing FlightAware ADS-B
Sat 12:28:00 PM 40.6942 -74.5767 29° Northeast 279 321 5,600 -188 Descending FlightAware ADS-B
Sat 12:28:16 PM 40.7118 -74.5640 29° Northeast 279 321 5,600 188 Level FlightAware ADS-B
Sat 12:28:32 PM 40.7297 -74.5510 29° Northeast 279 321 5,700 273 Climbing FlightAware ADS-B
Sat 12:28:38 PM 40.7371 -74.5457 28° Northeast 279 321 5,700  Level FlightAware ADS-B
Sat 12:28:54 PM 40.7544 -74.5332 29° Northeast 279 321 5,700  Level FlightAware ADS-B
Sat 12:29:09 PM 40.7720 -74.5206 28° Northeast 280 322 5,700  Level FlightAware ADS-B
Sat 12:29:24 PM 40.7895 -74.5083 28° Northeast 281 323 5,700  Level FlightAware ADS-B
Sat 12:29:30 PM 40.7959 -74.5037 29° Northeast 281 323 5,700 -222 Level FlightAware ADS-B
Sat 12:29:51 PM 40.8201 -74.4865 28° Northeast 282 325 5,600 -462 Descending FlightAware ADS-B
Sat 12:29:56 PM 40.8261 -74.4816 32° Northeast 282 325 5,500 -1,000 Descending FlightAware ADS-B
Sat 12:30:03 PM 40.8327 -74.4741 41° Northeast 282 325 5,400 -923 Descending FlightAware ADS-B
Sat 12:30:09 PM 40.8377 -74.4673 46° Northeast 281 323 5,300 -973 Descending FlightAware ADS-B
Sat 12:30:40 PM 40.8651 -74.4287 47° Northeast 280 322 4,800 -778 Descending FlightAware ADS-B
Sat 12:31:03 PM 40.8859 -74.4000 46° Northeast 276 318 4,600 -353 Descending FlightAware ADS-B
Sat 12:31:14 PM 40.8950 -74.3876 46° Northeast 274 315 4,600 -367 Level FlightAware ADS-B
Sat 12:31:52 PM 40.9180 -74.3350 60° Northeast 271 312 4,300 -724 Descending FlightAware ADS-B
Sat 12:32:12 PM 40.9250 -74.3030 74° East 269 310 3,900 -1,029 Descending FlightAware ADS-B
Sat 12:32:27 PM 40.9301 -74.2785 75° East 267 307 3,700 -947 Descending FlightAware ADS-B
Sat 12:32:31 PM 40.9305 -74.2713 86° East 262 302 3,600 -667 Descending FlightAware ADS-B
Sat 12:32:36 PM 40.9304 -74.2645 91° East 257 296 3,600  Level FlightAware ADS-B
Sat 12:32:51 PM 40.9294 -74.2413 93° East 241 277 3,600 150 Level FlightAware ADS-B
Sat 12:33:16 PM 40.9277 -74.2070 94° East 214 246 3,700  Climbing FlightAware ADS-B
Sat 12:33:57 PM 40.9260 -74.1610 93° East 188 216 3,600 -111 Descending FlightAware ADS-B
Sat 12:34:10 PM 40.9251 -74.1431 94° East 198 228 3,600 -818 Level FlightAware ADS-B
Sat 12:35:03 PM 40.9033 -74.1005 124° Southeast 189 217 2,700 -750 Descending FlightAware ADS-B
Sat 12:35:22 PM 40.8877 -74.0989 176° South 176 203 2,700  Level FlightAware ADS-B
Sat 12:35:38 PM 40.8744 -74.0975 175° South 175 201 2,700  Level FlightAware ADS-B
Sat 12:35:51 PM 40.8648 -74.0965 175° South 173 199 2,700 -414 Level FlightAware ADS-B
Sat 12:36:07 PM 40.8515 -74.0951 175° South 175 201 2,500 -750 Descending FlightAware ADS-B

Login

Don't have an account? Register now (free) for customized features, flight alerts, and more!